Time;durP1;ratioP1;P1;durP2;ratioP2;P2;SDS_P1;SDS_P2;PMS_P1;PMS_P2;Temp;Humidity;BMP_temperature;BMP_pressure;BME280_temperature;BME280_humidity;BME280_pressure;Samples;Min_cycle;Max_cycle;Signal;HPM_P1;HPM_P2
2022/09/06 00:00:10;;;;;;;;;;;21.50;64.60;;;;;;4917998;29;20287;-69
2022/09/06 00:02:36;;;;;;;;;;;21.50;64.60;;;;;;4918080;29;19912;-69
2022/09/06 00:05:02;;;;;;;;;;;21.50;64.60;;;;;;4918315;29;19962;-69
2022/09/06 00:07:28;;;;;;;;;;;21.40;65.00;;;;;;4917963;29;19970;-69
2022/09/06 00:09:54;;;;;;;;;;;21.40;65.20;;;;;;4917902;29;20340;-69
2022/09/06 00:12:19;;;;;;;;;;;21.40;65.50;;;;;;4917873;29;19940;-69
2022/09/06 00:14:45;;;;;;;;;;;21.40;65.30;;;;;;4917955;29;20393;-69
2022/09/06 00:17:11;;;;;;;;;;;21.30;64.90;;;;;;4917842;29;19919;-69
2022/09/06 00:19:36;;;;;;;;;;;21.30;65.10;;;;;;4917667;29;19915;-67
2022/09/06 00:22:02;;;;;;;;;;;21.30;65.20;;;;;;4907390;29;19961;-69
2022/09/06 00:24:27;;;;;;;;;;;21.30;65.00;;;;;;4917775;29;19916;-69
2022/09/06 00:26:53;;;;;;;;;;;21.40;65.40;;;;;;4929190;28;20367;-68
2022/09/06 00:29:19;;;;;;;;;;;21.40;65.10;;;;;;4911631;29;19958;-69
2022/09/06 00:31:44;;;;;;;;;;;21.40;64.80;;;;;;4904333;29;19915;-69
2022/09/06 00:34:10;;;;;;;;;;;21.40;65.20;;;;;;4917569;29;20377;-69
2022/09/06 00:36:35;;;;;;;;;;;21.20;65.70;;;;;;4917426;29;19934;-69
2022/09/06 00:39:01;;;;;;;;;;;21.20;65.90;;;;;;4917410;29;19978;-69
2022/09/06 00:41:26;;;;;;;;;;;21.10;66.30;;;;;;4917414;29;20014;-69
2022/09/06 00:43:53;;;;;;;;;;;21.10;66.60;;;;;;4917577;29;19922;-69
2022/09/06 00:46:22;;;;;;;;;;;21.10;66.60;;;;;;4916031;29;19926;-69
2022/09/06 00:48:49;;;;;;;;;;;21.10;66.90;;;;;;4917284;29;19915;-69
2022/09/06 00:51:16;;;;;;;;;;;21.10;67.10;;;;;;4917351;29;20275;-69
2022/09/06 00:53:42;;;;;;;;;;;21.10;66.50;;;;;;4905047;29;19919;-68
2022/09/06 00:56:08;;;;;;;;;;;21.10;66.60;;;;;;4915926;29;19918;-68
2022/09/06 00:58:33;;;;;;;;;;;21.10;66.10;;;;;;4916969;29;19915;-68
2022/09/06 01:01:00;;;;;;;;;;;21.20;65.60;;;;;;4916423;29;19926;-68
2022/09/06 01:03:26;;;;;;;;;;;21.20;65.40;;;;;;4917088;29;20005;-68
2022/09/06 01:06:05;;;;;;;;;;;21.20;65.70;;;;;;4917393;29;19994;-68
2022/09/06 01:08:46;;;;;;;;;;;21.20;66.20;;;;;;4915292;29;19919;-68
2022/09/06 01:11:11;;;;;;;;;;;21.10;66.60;;;;;;4916983;29;20003;-68
2022/09/06 01:13:52;;;;;;;;;;;21.10;66.80;;;;;;4916598;29;20026;-68
2022/09/06 01:16:20;;;;;;;;;;;21.00;67.10;;;;;;4916683;29;19937;-69
2022/09/06 01:19:01;;;;;;;;;;;21.00;67.40;;;;;;4916643;29;20369;-68
2022/09/06 01:21:26;;;;;;;;;;;21.00;67.30;;;;;;4928133;29;19971;-67
2022/09/06 01:23:52;;;;;;;;;;;20.90;67.40;;;;;;4911824;29;19920;-67
2022/09/06 01:26:17;;;;;;;;;;;20.90;67.00;;;;;;4913630;29;19977;-67
2022/09/06 01:28:46;;;;;;;;;;;21.00;66.90;;;;;;4916401;29;19915;-67
2022/09/06 01:31:12;;;;;;;;;;;21.00;66.90;;;;;;4916519;29;20376;-67
2022/09/06 01:33:42;;;;;;;;;;;21.00;66.80;;;;;;4916866;29;19925;-68
2022/09/06 01:36:11;;;;;;;;;;;21.00;67.00;;;;;;4916512;29;20419;-68
2022/09/06 01:38:36;;;;;;;;;;;20.90;67.20;;;;;;4916773;29;20268;-67
2022/09/06 01:41:02;;;;;;;;;;;21.00;67.20;;;;;;4916307;29;20010;-68
2022/09/06 01:43:30;;;;;;;;;;;21.00;67.10;;;;;;4916131;29;19950;-68
2022/09/06 01:46:14;;;;;;;;;;;21.00;67.00;;;;;;4915092;29;20435;-68
2022/09/06 01:48:57;;;;;;;;;;;21.00;67.40;;;;;;4916150;29;20047;-68
2022/09/06 01:51:22;;;;;;;;;;;21.00;67.70;;;;;;4916225;29;20005;-67
2022/09/06 01:53:54;;;;;;;;;;;21.00;67.80;;;;;;4903797;29;19963;-68
2022/09/06 01:56:26;;;;;;;;;;;21.00;67.10;;;;;;4916132;29;19919;-68
2022/09/06 01:59:10;;;;;;;;;;;21.00;67.00;;;;;;4915834;29;19915;-68
2022/09/06 02:01:38;;;;;;;;;;;21.00;66.60;;;;;;4916107;29;19911;-68
2022/09/06 02:04:25;;;;;;;;;;;21.10;66.20;;;;;;4915979;29;19918;-68
2022/09/06 02:06:59;;;;;;;;;;;21.20;65.80;;;;;;4916062;29;19970;-68
2022/09/06 02:09:26;;;;;;;;;;;21.10;66.20;;;;;;4915878;29;19937;-67
2022/09/06 02:11:54;;;;;;;;;;;21.10;66.20;;;;;;4915996;29;19915;-68
2022/09/06 02:14:23;;;;;;;;;;;21.10;66.20;;;;;;4915870;29;19930;-68
2022/09/06 02:16:49;;;;;;;;;;;21.10;65.90;;;;;;4915744;29;20380;-67
2022/09/06 02:19:20;;;;;;;;;;;21.10;66.10;;;;;;4915799;29;19911;-68
2022/09/06 02:21:46;;;;;;;;;;;21.10;67.30;;;;;;4915787;29;20298;-68
2022/09/06 02:24:17;;;;;;;;;;;21.00;66.90;;;;;;4905872;29;19915;-67
2022/09/06 02:26:43;;;;;;;;;;;21.00;66.70;;;;;;4915892;29;19915;-67
2022/09/06 02:29:09;;;;;;;;;;;21.00;66.80;;;;;;4915721;29;19915;-68
2022/09/06 02:31:37;;;;;;;;;;;21.00;65.70;;;;;;4915763;29;19919;-68
2022/09/06 02:34:03;;;;;;;;;;;21.10;65.60;;;;;;4916213;29;20278;-68
2022/09/06 02:36:29;;;;;;;;;;;21.10;66.10;;;;;;4915625;29;19929;-68
2022/09/06 02:38:55;;;;;;;;;;;21.10;66.60;;;;;;4927171;28;19915;-68
2022/09/06 02:41:22;;;;;;;;;;;21.00;66.80;;;;;;4910588;29;19982;-69
2022/09/06 02:43:48;;;;;;;;;;;21.10;66.00;;;;;;4915664;29;19915;-68
2022/09/06 02:46:14;;;;;;;;;;;21.20;65.10;;;;;;4915669;29;20336;-68
2022/09/06 02:48:39;;;;;;;;;;;21.30;63.60;;;;;;4915449;29;19915;-68
2022/09/06 02:51:06;;;;;;;;;;;21.30;63.00;;;;;;4915690;29;20435;-68
2022/09/06 02:53:31;;;;;;;;;;;21.30;63.30;;;;;;4907621;29;19951;-68
2022/09/06 02:55:57;;;;;;;;;;;21.30;64.10;;;;;;4915711;29;19911;-68
2022/09/06 02:58:23;;;;;;;;;;;21.20;64.80;;;;;;4915581;29;19911;-68
2022/09/06 03:00:50;;;;;;;;;;;21.10;65.40;;;;;;4915588;29;19922;-67
2022/09/06 03:03:15;;;;;;;;;;;21.00;67.00;;;;;;4915426;29;19911;-68
2022/09/06 03:05:41;;;;;;;;;;;20.90;67.50;;;;;;4915333;29;20014;-67
2022/09/06 03:08:07;;;;;;;;;;;20.80;68.30;;;;;;4915358;29;19919;-67
2022/09/06 03:10:32;;;;;;;;;;;20.70;68.30;;;;;;4914095;29;20025;-68
2022/09/06 03:12:58;;;;;;;;;;;20.70;68.60;;;;;;4915513;29;19922;-67
2022/09/06 03:15:23;;;;;;;;;;;20.60;68.50;;;;;;4915317;29;19922;-68
2022/09/06 03:17:49;;;;;;;;;;;20.70;68.30;;;;;;4915188;29;19919;-67
2022/09/06 03:20:14;;;;;;;;;;;20.70;68.40;;;;;;4915329;29;20005;-68
2022/09/06 03:22:40;;;;;;;;;;;20.70;67.80;;;;;;4904602;29;19911;-69
2022/09/06 03:25:06;;;;;;;;;;;20.60;68.40;;;;;;4918463;29;19915;-68
2022/09/06 03:27:32;;;;;;;;;;;20.50;68.90;;;;;;4918771;29;19959;-68
2022/09/06 03:29:58;;;;;;;;;;;20.50;69.50;;;;;;4918466;29;20332;-69
2022/09/06 03:32:23;;;;;;;;;;;20.50;69.30;;;;;;4918640;29;20015;-69
2022/09/06 03:34:49;;;;;;;;;;;20.40;69.20;;;;;;4918321;29;20007;-68
2022/09/06 03:37:14;;;;;;;;;;;20.40;70.20;;;;;;4917429;29;19921;-68
2022/09/06 03:39:40;;;;;;;;;;;20.40;69.70;;;;;;4918324;29;20360;-68
2022/09/06 03:42:05;;;;;;;;;;;20.30;70.60;;;;;;4918464;29;19934;-68
2022/09/06 03:44:31;;;;;;;;;;;20.30;70.70;;;;;;4918497;29;19986;-69
2022/09/06 03:46:57;;;;;;;;;;;20.20;70.60;;;;;;4918096;29;19982;-68
2022/09/06 03:49:23;;;;;;;;;;;20.20;71.10;;;;;;4918452;29;20446;-69
2022/09/06 03:51:48;;;;;;;;;;;20.20;70.80;;;;;;4918270;29;19938;-69
2022/09/06 03:54:14;;;;;;;;;;;20.20;70.60;;;;;;4908348;28;20371;-69
2022/09/06 03:56:39;;;;;;;;;;;20.20;69.90;;;;;;4918014;29;19915;-69
2022/09/06 03:59:05;;;;;;;;;;;20.20;70.60;;;;;;4918038;29;20276;-69
2022/09/06 04:01:30;;;;;;;;;;;20.20;70.80;;;;;;4918070;29;19971;-68
2022/09/06 04:03:56;;;;;;;;;;;20.20;71.50;;;;;;4918159;29;19912;-69
2022/09/06 04:06:21;;;;;;;;;;;20.30;70.20;;;;;;4917890;29;20410;-69
2022/09/06 04:08:47;;;;;;;;;;;20.30;70.20;;;;;;4917758;29;19923;-69
2022/09/06 04:11:13;;;;;;;;;;;20.30;70.90;;;;;;4917999;29;19911;-68
2022/09/06 04:13:38;;;;;;;;;;;20.20;71.30;;;;;;4917697;29;19966;-69
2022/09/06 04:16:04;;;;;;;;;;;20.10;70.80;;;;;;4918140;29;19912;-69
2022/09/06 04:18:30;;;;;;;;;;;20.20;70.80;;;;;;4917932;29;19915;-68
2022/09/06 04:20:56;;;;;;;;;;;20.10;70.50;;;;;;4917548;29;19922;-69
2022/09/06 04:23:22;;;;;;;;;;;20.20;69.50;;;;;;4904520;29;19918;-68
2022/09/06 04:25:49;;;;;;;;;;;20.20;69.80;;;;;;4917753;29;19959;-69
2022/09/06 04:28:17;;;;;;;;;;;20.30;69.00;;;;;;4917721;29;20463;-69
2022/09/06 04:30:56;;;;;;;;;;;20.40;67.20;;;;;;4917484;29;19932;-69
2022/09/06 04:33:25;;;;;;;;;;;20.50;67.20;;;;;;4917550;29;19963;-71
2022/09/06 04:35:55;;;;;;;;;;;20.50;66.70;;;;;;4916387;29;19915;-69
2022/09/06 04:38:21;;;;;;;;;;;20.60;66.00;;;;;;4917493;29;19911;-67
2022/09/06 04:40:46;;;;;;;;;;;20.70;66.20;;;;;;4917287;29;20351;-67
2022/09/06 04:43:12;;;;;;;;;;;20.80;64.60;;;;;;4917128;29;19911;-68
2022/09/06 04:45:38;;;;;;;;;;;20.80;65.00;;;;;;4917371;29;19919;-66
2022/09/06 04:48:03;;;;;;;;;;;20.70;65.30;;;;;;4917298;29;20291;-71
2022/09/06 04:50:29;;;;;;;;;;;20.70;65.20;;;;;;4917057;29;19915;-67
2022/09/06 04:52:54;;;;;;;;;;;20.70;65.30;;;;;;4904033;29;19921;-68
2022/09/06 04:55:20;;;;;;;;;;;20.70;65.00;;;;;;4917076;29;19949;-71
2022/09/06 04:57:45;;;;;;;;;;;20.70;65.20;;;;;;4917049;29;19918;-71
2022/09/06 05:00:11;;;;;;;;;;;20.60;66.70;;;;;;4916905;29;19915;-66
2022/09/06 05:02:37;;;;;;;;;;;20.80;69.20;;;;;;4917016;29;19923;-65
2022/09/06 05:05:03;;;;;;;;;;;21.10;67.40;;;;;;4916968;29;19938;-64
2022/09/06 05:07:29;;;;;;;;;;;21.30;65.40;;;;;;4916938;29;20319;-63
2022/09/06 05:09:55;;;;;;;;;;;21.60;65.60;;;;;;4915978;29;19931;-62
2022/09/06 05:12:21;;;;;;;;;;;21.90;64.00;;;;;;4916707;29;19928;-62
2022/09/06 05:14:46;;;;;;;;;;;22.10;62.80;;;;;;4916682;29;19919;-62
2022/09/06 05:17:13;;;;;;;;;;;22.10;62.00;;;;;;4916343;29;19919;-63
2022/09/06 05:19:39;;;;;;;;;;;22.20;62.60;;;;;;4916389;29;19998;-65
2022/09/06 05:22:05;;;;;;;;;;;22.20;62.00;;;;;;4910465;29;20401;-66
2022/09/06 05:24:30;;;;;;;;;;;22.20;62.10;;;;;;4916438;29;19911;-62
2022/09/06 05:26:56;;;;;;;;;;;22.30;62.20;;;;;;4916135;29;19943;-64
2022/09/06 05:29:21;;;;;;;;;;;22.30;62.00;;;;;;4916261;29;19915;-67
2022/09/06 05:31:47;;;;;;;;;;;22.40;62.90;;;;;;4916499;29;19911;-65
2022/09/06 05:34:13;;;;;;;;;;;22.10;63.30;;;;;;4915879;29;19919;-63
2022/09/06 05:36:40;;;;;;;;;;;22.00;64.70;;;;;;4915969;29;19919;-65
2022/09/06 05:39:06;;;;;;;;;;;21.90;65.90;;;;;;4915978;29;19911;-65
2022/09/06 05:41:32;;;;;;;;;;;21.60;66.60;;;;;;4915898;29;19915;-63
2022/09/06 05:43:58;;;;;;;;;;;21.60;66.60;;;;;;4916437;29;19915;-64
2022/09/06 05:46:25;;;;;;;;;;;21.80;66.30;;;;;;4915819;29;19915;-66
2022/09/06 05:48:51;;;;;;;;;;;22.00;65.50;;;;;;4916280;29;19969;-63
2022/09/06 05:51:17;;;;;;;;;;;22.10;64.90;;;;;;4916066;29;19915;-61
2022/09/06 05:53:43;;;;;;;;;;;22.10;65.50;;;;;;4905932;29;19919;-62
2022/09/06 05:56:09;;;;;;;;;;;21.70;66.90;;;;;;4915973;29;19911;-63
2022/09/06 05:58:35;;;;;;;;;;;21.50;68.10;;;;;;4916232;29;20021;-61
2022/09/06 06:01:03;;;;;;;;;;;21.70;67.80;;;;;;4916200;29;20419;-65
2022/09/06 06:03:29;;;;;;;;;;;21.90;66.60;;;;;;4915723;29;20146;-63
2022/09/06 06:05:54;;;;;;;;;;;22.10;65.60;;;;;;4916103;29;20359;-64
2022/09/06 06:08:20;;;;;;;;;;;22.40;64.30;;;;;;4915881;29;19915;-60
2022/09/06 06:10:45;;;;;;;;;;;22.70;63.40;;;;;;4915775;29;20257;-65
2022/09/06 06:13:11;;;;;;;;;;;23.10;63.00;;;;;;4915869;29;20316;-64
2022/09/06 06:15:36;;;;;;;;;;;23.40;63.10;;;;;;4915827;29;20430;-63
2022/09/06 06:18:02;;;;;;;;;;;23.60;61.20;;;;;;4915720;29;20518;-64
2022/09/06 06:20:28;;;;;;;;;;;23.80;61.80;;;;;;4915892;29;20382;-64
2022/09/06 06:22:53;;;;;;;;;;;24.00;61.70;;;;;;4903839;29;19919;-64
2022/09/06 06:25:21;;;;;;;;;;;24.10;61.00;;;;;;4915815;29;19915;-62
2022/09/06 06:27:47;;;;;;;;;;;24.30;59.80;;;;;;4915543;29;19907;-63
2022/09/06 06:30:14;;;;;;;;;;;24.60;59.10;;;;;;4915774;29;19916;-68
2022/09/06 06:32:39;;;;;;;;;;;24.80;60.20;;;;;;4915740;29;20017;-65
2022/09/06 06:35:05;;;;;;;;;;;24.90;59.50;;;;;;4915617;29;19970;-68
2022/09/06 06:37:32;;;;;;;;;;;25.10;59.30;;;;;;4915809;29;19918;-67
2022/09/06 06:39:57;;;;;;;;;;;25.10;58.00;;;;;;4914537;29;19915;-68
2022/09/06 06:42:23;;;;;;;;;;;25.30;58.90;;;;;;4914659;29;19911;-67
2022/09/06 06:44:48;;;;;;;;;;;25.50;58.40;;;;;;4914637;29;19955;-68
2022/09/06 06:47:14;;;;;;;;;;;25.60;58.10;;;;;;4914600;29;19912;-64
2022/09/06 06:49:39;;;;;;;;;;;25.70;57.10;;;;;;4914437;29;20481;-63
2022/09/06 06:52:05;;;;;;;;;;;25.80;56.70;;;;;;4905735;29;19916;-65
2022/09/06 06:54:31;;;;;;;;;;;26.00;58.60;;;;;;4914566;29;19919;-62
2022/09/06 06:56:57;;;;;;;;;;;26.10;58.20;;;;;;4914644;29;19915;-63
2022/09/06 06:59:22;;;;;;;;;;;26.20;57.00;;;;;;4916524;29;19915;-65
2022/09/06 07:01:49;;;;;;;;;;;26.30;55.80;;;;;;4918155;29;20279;-64
2022/09/06 07:04:15;;;;;;;;;;;26.50;55.40;;;;;;4918308;29;19911;-65
2022/09/06 07:06:50;;;;;;;;;;;26.50;56.30;;;;;;4917847;29;19918;-66
2022/09/06 07:09:17;;;;;;;;;;;26.70;55.60;;;;;;4918051;29;20376;-69
2022/09/06 07:11:43;;;;;;;;;;;26.80;56.50;;;;;;4917977;29;19915;-66
2022/09/06 07:14:08;;;;;;;;;;;26.90;54.70;;;;;;4918214;29;20309;-68
2022/09/06 07:16:34;;;;;;;;;;;27.00;53.40;;;;;;4918278;29;19954;-71
2022/09/06 07:19:02;;;;;;;;;;;27.10;52.60;;;;;;4916249;29;20128;-69
2022/09/06 07:21:27;;;;;;;;;;;27.10;52.00;;;;;;4918388;29;20272;-64
2022/09/06 07:23:53;;;;;;;;;;;27.20;53.10;;;;;;4908700;29;19911;-68
2022/09/06 07:26:20;;;;;;;;;;;26.80;51.00;;;;;;4918371;29;20002;-69
2022/09/06 07:28:46;;;;;;;;;;;26.80;51.50;;;;;;4918655;29;19912;-68
2022/09/06 07:31:12;;;;;;;;;;;26.70;51.90;;;;;;4918512;29;19915;-70
2022/09/06 07:33:38;;;;;;;;;;;26.30;52.50;;;;;;4917367;29;19926;-69
2022/09/06 07:36:05;;;;;;;;;;;25.90;53.80;;;;;;4918296;29;19919;-69
2022/09/06 07:38:31;;;;;;;;;;;25.70;54.80;;;;;;4918759;29;20390;-68
2022/09/06 07:40:57;;;;;;;;;;;25.60;55.00;;;;;;4918549;29;20304;-67
2022/09/06 07:43:24;;;;;;;;;;;25.50;54.90;;;;;;4918375;29;19965;-69
2022/09/06 07:45:59;;;;;;;;;;;25.70;54.80;;;;;;4918449;29;19927;-70
2022/09/06 07:48:26;;;;;;;;;;;26.00;54.30;;;;;;4918336;29;19915;-68
2022/09/06 07:50:52;;;;;;;;;;;26.20;53.30;;;;;;4918164;29;19911;-66
2022/09/06 07:53:18;;;;;;;;;;;26.60;52.90;;;;;;4903196;29;19915;-66
2022/09/06 07:55:43;;;;;;;;;;;26.80;52.00;;;;;;4918218;29;19921;-65
2022/09/06 07:58:09;;;;;;;;;;;27.10;52.10;;;;;;4918110;29;19922;-66
2022/09/06 08:00:35;;;;;;;;;;;27.40;51.50;;;;;;4918148;29;19912;-68
2022/09/06 08:03:00;;;;;;;;;;;27.30;50.90;;;;;;4918201;29;19922;-66
2022/09/06 08:05:26;;;;;;;;;;;27.30;50.10;;;;;;4917938;29;20356;-67
2022/09/06 08:07:51;;;;;;;;;;;27.20;50.20;;;;;;4917952;29;19915;-65
2022/09/06 08:10:17;;;;;;;;;;;27.30;50.20;;;;;;4917446;29;19930;-65
2022/09/06 08:12:43;;;;;;;;;;;27.50;51.20;;;;;;4917973;29;19950;-69
2022/09/06 08:15:08;;;;;;;;;;;27.20;51.20;;;;;;4917768;29;19926;-64
2022/09/06 08:17:34;;;;;;;;;;;27.40;51.70;;;;;;4917856;29;19915;-65
2022/09/06 08:20:01;;;;;;;;;;;27.60;51.50;;;;;;4917526;29;20014;-64
2022/09/06 08:22:30;;;;;;;;;;;27.80;51.60;;;;;;4899688;29;20279;-64
2022/09/06 08:24:56;;;;;;;;;;;27.60;50.50;;;;;;4917571;29;19915;-67
2022/09/06 08:27:21;;;;;;;;;;;27.20;51.50;;;;;;4917613;29;19959;-69
2022/09/06 08:29:47;;;;;;;;;;;27.30;52.00;;;;;;4917434;29;19954;-70
2022/09/06 08:32:12;;;;;;;;;;;27.60;52.90;;;;;;4917428;29;20391;-69
2022/09/06 08:34:38;;;;;;;;;;;27.50;51.80;;;;;;4917803;29;19923;-69
2022/09/06 08:37:04;;;;;;;;;;;27.40;51.40;;;;;;4917495;29;19911;-68
2022/09/06 08:39:29;;;;;;;;;;;27.40;52.00;;;;;;4917399;29;19983;-68
2022/09/06 08:41:59;;;;;;;;;;;27.60;51.70;;;;;;4917295;29;20406;-67
2022/09/06 08:44:32;;;;;;;;;;;27.70;51.10;;;;;;4917517;29;20283;-69
2022/09/06 08:46:58;;;;;;;;;;;27.80;50.20;;;;;;4915954;29;19911;-69
2022/09/06 08:49:25;;;;;;;;;;;27.70;50.70;;;;;;4917162;29;19912;-68
2022/09/06 08:51:59;;;;;;;;;;;27.80;49.70;;;;;;4917397;29;20303;-67
2022/09/06 08:54:39;;;;;;;;;;;27.70;49.60;;;;;;4928695;29;19919;-70
2022/09/06 08:57:12;;;;;;;;;;;27.50;48.10;;;;;;4915500;29;19916;-69
2022/09/06 08:59:38;;;;;;;;;;;27.10;49.20;;;;;;4917167;29;19938;-66
2022/09/06 09:02:04;;;;;;;;;;;27.40;50.20;;;;;;4916907;29;19955;-70
2022/09/06 09:04:30;;;;;;;;;;;27.40;48.60;;;;;;4916944;29;19969;-69
2022/09/06 09:07:05;;;;;;;;;;;27.30;48.00;;;;;;4916924;29;19915;-67
2022/09/06 09:09:32;;;;;;;;;;;27.20;49.10;;;;;;4916746;29;19923;-70
2022/09/06 09:11:58;;;;;;;;;;;27.40;49.50;;;;;;4916576;29;19922;-68
2022/09/06 09:14:26;;;;;;;;;;;27.60;50.10;;;;;;4916763;29;19919;-68
2022/09/06 09:16:53;;;;;;;;;;;27.40;48.50;;;;;;4916630;29;19915;-68
2022/09/06 09:19:19;;;;;;;;;;;27.30;49.30;;;;;;4916689;29;19920;-67
2022/09/06 09:21:45;;;;;;;;;;;27.10;50.00;;;;;;4915987;29;19921;-69
2022/09/06 09:24:12;;;;;;;;;;;26.90;50.00;;;;;;4909005;29;19919;-67
2022/09/06 09:26:40;;;;;;;;;;;27.10;50.00;;;;;;4916310;29;19915;-69
2022/09/06 09:29:08;;;;;;;;;;;27.00;50.00;;;;;;4928070;29;19911;-67
2022/09/06 09:31:35;;;;;;;;;;;27.00;47.80;;;;;;4914805;29;19916;-67
2022/09/06 09:34:03;;;;;;;;;;;26.90;48.30;;;;;;4915220;29;19982;-69
2022/09/06 09:36:29;;;;;;;;;;;27.00;47.40;;;;;;4916372;29;19923;-67
2022/09/06 09:38:55;;;;;;;;;;;26.80;46.80;;;;;;4916191;29;19915;-68
2022/09/06 09:41:30;;;;;;;;;;;27.00;47.20;;;;;;4916352;29;20410;-66
2022/09/06 09:44:00;;;;;;;;;;;27.00;45.90;;;;;;4916408;29;20413;-66
2022/09/06 09:46:26;;;;;;;;;;;27.20;46.00;;;;;;4916156;29;19915;-65
2022/09/06 09:49:02;;;;;;;;;;;27.40;44.80;;;;;;4916257;29;19922;-65
2022/09/06 09:51:28;;;;;;;;;;;27.40;44.70;;;;;;4916315;29;20006;-70
2022/09/06 09:53:58;;;;;;;;;;;27.50;45.20;;;;;;4909509;29;20049;-68
2022/09/06 09:56:27;;;;;;;;;;;27.70;45.00;;;;;;4916162;29;20379;-68
2022/09/06 09:58:54;;;;;;;;;;;27.90;44.60;;;;;;4915962;29;19919;-65
2022/09/06 10:01:22;;;;;;;;;;;27.80;44.40;;;;;;4916042;29;19915;-69
2022/09/06 10:03:49;;;;;;;;;;;27.60;44.50;;;;;;4916146;29;20010;-71
2022/09/06 10:06:15;;;;;;;;;;;27.70;45.00;;;;;;4915943;29;19915;-69
2022/09/06 10:08:42;;;;;;;;;;;27.90;43.30;;;;;;4916039;28;19974;-66
2022/09/06 10:11:12;;;;;;;;;;;27.80;43.80;;;;;;4916034;29;19966;-67
2022/09/06 10:13:37;;;;;;;;;;;27.90;44.60;;;;;;4915953;29;19915;-71
2022/09/06 10:16:03;;;;;;;;;;;27.90;45.20;;;;;;4915729;29;20386;-68
2022/09/06 10:18:33;;;;;;;;;;;27.90;45.10;;;;;;4916046;29;19949;-66
2022/09/06 10:21:14;;;;;;;;;;;28.10;46.40;;;;;;4915706;29;19921;-70
2022/09/06 10:23:46;;;;;;;;;;;27.80;45.10;;;;;;4903364;29;20287;-68
2022/09/06 10:26:15;;;;;;;;;;;27.70;45.40;;;;;;4915881;29;19911;-69
2022/09/06 10:28:41;;;;;;;;;;;27.80;46.70;;;;;;4915869;29;19912;-65
2022/09/06 10:31:11;;;;;;;;;;;27.80;46.50;;;;;;4915796;29;19912;-65
2022/09/06 10:33:42;;;;;;;;;;;28.00;46.80;;;;;;4918520;29;19916;-68
2022/09/06 10:36:08;;;;;;;;;;;27.90;45.80;;;;;;4919921;29;19916;-64
2022/09/06 10:38:44;;;;;;;;;;;28.00;46.10;;;;;;4919618;29;19998;-67
2022/09/06 10:41:21;;;;;;;;;;;28.20;46.70;;;;;;4919605;29;19990;-66
2022/09/06 10:44:13;;;;;;;;;;;28.10;46.20;;;;;;4919487;29;19919;-65
2022/09/06 10:46:41;;;;;;;;;;;27.80;47.10;;;;;;4933004;29;19917;-65
2022/09/06 10:49:10;;;;;;;;;;;27.40;47.90;;;;;;4919486;29;19915;-65
2022/09/06 10:51:44;;;;;;;;;;;27.40;49.70;;;;;;4918077;29;19915;-66
2022/09/06 10:54:11;;;;;;;;;;;27.20;49.40;;;;;;4907973;29;20030;-64
2022/09/06 10:56:49;;;;;;;;;;;27.40;50.40;;;;;;4919336;29;19939;-67
2022/09/06 10:59:23;;;;;;;;;;;27.60;50.00;;;;;;4919295;29;19919;-65
2022/09/06 11:01:55;;;;;;;;;;;27.70;50.60;;;;;;4919249;29;19911;-66
2022/09/06 11:04:41;;;;;;;;;;;28.00;51.00;;;;;;4919223;29;19915;-65
2022/09/06 11:07:12;;;;;;;;;;;28.10;50.80;;;;;;4919116;29;19967;-67
2022/09/06 11:09:45;;;;;;;;;;;28.20;51.30;;;;;;4918803;29;19927;-68
2022/09/06 11:12:16;;;;;;;;;;;27.70;49.10;;;;;;4919052;29;19916;-68
2022/09/06 11:14:42;;;;;;;;;;;27.90;49.70;;;;;;4918859;29;19966;-67
2022/09/06 11:17:11;;;;;;;;;;;28.10;49.50;;;;;;4919024;29;19942;-68
2022/09/06 11:19:44;;;;;;;;;;;28.00;49.80;;;;;;4918975;29;19954;-69
2022/09/06 11:22:26;;;;;;;;;;;27.90;46.80;;;;;;4908654;29;19967;-68
2022/09/06 11:24:51;;;;;;;;;;;28.10;47.60;;;;;;4918735;29;19919;-69
2022/09/06 11:27:20;;;;;;;;;;;28.40;48.10;;;;;;4918679;29;19919;-69
2022/09/06 11:29:54;;;;;;;;;;;28.50;47.70;;;;;;4918541;29;19921;-68
2022/09/06 11:32:31;;;;;;;;;;;28.60;48.20;;;;;;4918830;29;19926;-67
2022/09/06 11:34:58;;;;;;;;;;;28.60;46.70;;;;;;4918569;29;19923;-69
2022/09/06 11:37:26;;;;;;;;;;;28.70;46.80;;;;;;4918972;29;20342;-68
2022/09/06 11:40:24;;;;;;;;;;;28.90;46.40;;;;;;4918326;29;19958;-65
2022/09/06 11:42:49;;;;;;;;;;;28.50;46.10;;;;;;4938018;29;20407;-70
2022/09/06 11:45:20;;;;;;;;;;;28.50;46.80;;;;;;4917769;29;19950;-68
2022/09/06 11:47:48;;;;;;;;;;;28.70;47.00;;;;;;4918495;29;19911;-68
2022/09/06 11:50:17;;;;;;;;;;;28.80;45.80;;;;;;4917919;29;20341;-68
2022/09/06 11:53:02;;;;;;;;;;;28.90;44.50;;;;;;4904177;29;19915;-70
2022/09/06 11:55:36;;;;;;;;;;;28.90;45.20;;;;;;4929995;28;20280;-67
2022/09/06 11:58:14;;;;;;;;;;;28.50;43.80;;;;;;4910911;29;20359;-70
2022/09/06 12:00:40;;;;;;;;;;;28.40;43.90;;;;;;4918062;29;19926;-69
2022/09/06 12:03:06;;;;;;;;;;;28.60;44.70;;;;;;4918354;29;19915;-68
2022/09/06 12:05:32;;;;;;;;;;;28.70;43.80;;;;;;4914965;29;19911;-68
2022/09/06 12:08:10;;;;;;;;;;;28.90;44.20;;;;;;4909602;29;20006;-69
2022/09/06 12:10:38;;;;;;;;;;;29.10;43.90;;;;;;4918566;29;19923;-67
2022/09/06 12:13:23;;;;;;;;;;;29.10;43.80;;;;;;4918443;29;19993;-66
2022/09/06 12:15:52;;;;;;;;;;;28.40;42.50;;;;;;4918553;29;19919;-68
2022/09/06 12:18:36;;;;;;;;;;;28.40;43.70;;;;;;4918536;29;19915;-68
2022/09/06 12:21:02;;;;;;;;;;;28.60;44.50;;;;;;4917804;29;19970;-66
2022/09/06 12:23:33;;;;;;;;;;;28.70;43.70;;;;;;4907277;29;19915;-66
2022/09/06 12:25:59;;;;;;;;;;;28.90;42.80;;;;;;4917832;29;20356;-67
2022/09/06 12:28:46;;;;;;;;;;;29.10;43.90;;;;;;4918142;29;20387;-68
2022/09/06 12:31:26;;;;;;;;;;;29.20;43.20;;;;;;4917448;29;20392;-67
2022/09/06 12:33:53;;;;;;;;;;;29.30;42.40;;;;;;4917593;29;19918;-68
2022/09/06 12:36:19;;;;;;;;;;;29.00;42.90;;;;;;4917313;29;20383;-68
2022/09/06 12:38:57;;;;;;;;;;;29.10;43.40;;;;;;4917504;29;20054;-69
2022/09/06 12:41:24;;;;;;;;;;;28.90;42.70;;;;;;4917459;29;20021;-68
2022/09/06 12:43:49;;;;;;;;;;;28.40;43.30;;;;;;4917536;29;19958;-66
2022/09/06 12:46:15;;;;;;;;;;;28.20;43.40;;;;;;4917541;29;19945;-70
2022/09/06 12:48:43;;;;;;;;;;;28.40;44.00;;;;;;4917010;29;19915;-68
2022/09/06 12:51:18;;;;;;;;;;;28.50;43.80;;;;;;4917261;29;20272;-67
2022/09/06 12:53:50;;;;;;;;;;;28.30;43.50;;;;;;4908907;29;19922;-66
2022/09/06 12:56:18;;;;;;;;;;;28.50;44.30;;;;;;4916325;29;19938;-66
2022/09/06 12:58:44;;;;;;;;;;;28.80;44.40;;;;;;4916947;29;20005;-66
2022/09/06 13:01:24;;;;;;;;;;;28.90;44.30;;;;;;4917085;29;20059;-67
2022/09/06 13:04:11;;;;;;;;;;;29.00;42.30;;;;;;4915747;29;20439;-66
2022/09/06 13:06:40;;;;;;;;;;;28.70;42.10;;;;;;4917048;29;20696;-65
2022/09/06 13:09:07;;;;;;;;;;;28.60;42.50;;;;;;4916664;29;19927;-65
2022/09/06 13:11:37;;;;;;;;;;;28.40;42.30;;;;;;4916847;29;19918;-66
2022/09/06 13:14:29;;;;;;;;;;;28.50;43.00;;;;;;4916885;29;20402;-66
2022/09/06 13:16:58;;;;;;;;;;;28.40;42.60;;;;;;4918242;29;19911;-66
2022/09/06 13:19:30;;;;;;;;;;;28.70;42.60;;;;;;4916704;29;19962;-67
2022/09/06 13:21:57;;;;;;;;;;;28.50;42.00;;;;;;4916612;29;20265;-67
2022/09/06 13:24:31;;;;;;;;;;;28.70;42.80;;;;;;4899044;29;19964;-66
2022/09/06 13:26:57;;;;;;;;;;;28.60;42.50;;;;;;4916600;29;19935;-67
2022/09/06 13:29:32;;;;;;;;;;;28.60;43.20;;;;;;4916590;29;19915;-68
2022/09/06 13:31:58;;;;;;;;;;;28.50;42.90;;;;;;4916571;29;20367;-68
2022/09/06 13:34:25;;;;;;;;;;;28.40;42.70;;;;;;4916331;29;19926;-66
2022/09/06 13:36:52;;;;;;;;;;;28.50;44.80;;;;;;4916530;29;19994;-67
2022/09/06 13:39:32;;;;;;;;;;;28.40;43.50;;;;;;4916648;29;19915;-66
2022/09/06 13:42:02;;;;;;;;;;;28.60;44.50;;;;;;4916304;29;20287;-70
2022/09/06 13:44:30;;;;;;;;;;;28.70;44.10;;;;;;4916447;29;19934;-66
2022/09/06 13:46:55;;;;;;;;;;;28.80;44.20;;;;;;4916144;29;20392;-69
2022/09/06 13:49:24;;;;;;;;;;;28.70;43.90;;;;;;4916402;29;19947;-69
2022/09/06 13:51:51;;;;;;;;;;;28.90;43.90;;;;;;4916181;29;20427;-70
2022/09/06 13:54:17;;;;;;;;;;;29.00;43.50;;;;;;4904766;29;20360;-67
2022/09/06 13:56:47;;;;;;;;;;;29.10;44.10;;;;;;4914800;29;19934;-70
2022/09/06 13:59:12;;;;;;;;;;;29.00;44.00;;;;;;4916284;29;19919;-68
2022/09/06 14:01:40;;;;;;;;;;;29.00;43.60;;;;;;4916040;29;20391;-66
2022/09/06 14:04:06;;;;;;;;;;;28.80;44.00;;;;;;4916314;29;20364;-65
2022/09/06 14:06:31;;;;;;;;;;;28.90;44.50;;;;;;4916214;29;19911;-68
2022/09/06 14:08:57;;;;;;;;;;;29.00;43.90;;;;;;4915764;29;20403;-69
2022/09/06 14:11:23;;;;;;;;;;;28.70;43.40;;;;;;4916039;29;19919;-71
2022/09/06 14:13:49;;;;;;;;;;;28.60;42.20;;;;;;4915988;29;20427;-67
2022/09/06 14:16:14;;;;;;;;;;;28.70;42.70;;;;;;4915884;29;19918;-68
2022/09/06 14:18:40;;;;;;;;;;;28.50;42.30;;;;;;4916021;29;20394;-68
2022/09/06 14:21:06;;;;;;;;;;;28.50;43.00;;;;;;4915641;29;20446;-68